sensor_id;sensor_type;location;lat;lon;timestamp;P1;durP1;ratioP1;P2;durP2;ratioP2
60233;SDS011;49514;43.538;-5.708;2022-11-20T00:03:23;6.85;;;2.65;;
60233;SDS011;49514;43.538;-5.708;2022-11-20T00:05:49;5.63;;;2.35;;
60233;SDS011;49514;43.538;-5.708;2022-11-20T00:08:16;3.17;;;1.75;;
60233;SDS011;49514;43.538;-5.708;2022-11-20T00:10:43;5.13;;;1.83;;
60233;SDS011;49514;43.538;-5.708;2022-11-20T00:13:09;6.03;;;1.42;;
60233;SDS011;49514;43.538;-5.708;2022-11-20T00:15:36;1.35;;;1.10;;
60233;SDS011;49514;43.538;-5.708;2022-11-20T00:18:03;1.23;;;1.10;;
60233;SDS011;49514;43.538;-5.708;2022-11-20T00:20:29;1.38;;;1.02;;
60233;SDS011;49514;43.538;-5.708;2022-11-20T00:22:56;2.22;;;0.95;;
60233;SDS011;49514;43.538;-5.708;2022-11-20T00:25:23;2.63;;;0.90;;
60233;SDS011;49514;43.538;-5.708;2022-11-20T00:27:50;4.05;;;1.15;;
60233;SDS011;49514;43.538;-5.708;2022-11-20T00:30:17;1.42;;;0.98;;
60233;SDS011;49514;43.538;-5.708;2022-11-20T00:32:44;1.00;;;0.82;;
60233;SDS011;49514;43.538;-5.708;2022-11-20T00:35:10;2.70;;;1.17;;
60233;SDS011;49514;43.538;-5.708;2022-11-20T00:37:37;1.85;;;1.00;;
60233;SDS011;49514;43.538;-5.708;2022-11-20T00:40:03;2.27;;;1.10;;
60233;SDS011;49514;43.538;-5.708;2022-11-20T00:42:31;1.73;;;1.20;;
60233;SDS011;49514;43.538;-5.708;2022-11-20T00:44:58;3.27;;;1.40;;
60233;SDS011;49514;43.538;-5.708;2022-11-20T00:47:25;2.77;;;1.10;;
60233;SDS011;49514;43.538;-5.708;2022-11-20T00:49:52;2.83;;;1.13;;
60233;SDS011;49514;43.538;-5.708;2022-11-20T00:52:18;2.88;;;1.30;;
60233;SDS011;49514;43.538;-5.708;2022-11-20T00:54:45;2.13;;;1.10;;
60233;SDS011;49514;43.538;-5.708;2022-11-20T00:57:12;1.13;;;1.00;;
60233;SDS011;49514;43.538;-5.708;2022-11-20T00:59:39;2.73;;;1.10;;
60233;SDS011;49514;43.538;-5.708;2022-11-20T01:02:05;2.00;;;0.90;;
60233;SDS011;49514;43.538;-5.708;2022-11-20T01:04:32;1.38;;;0.95;;
60233;SDS011;49514;43.538;-5.708;2022-11-20T01:06:58;1.27;;;0.80;;
60233;SDS011;49514;43.538;-5.708;2022-11-20T01:09:25;1.80;;;1.00;;
60233;SDS011;49514;43.538;-5.708;2022-11-20T01:11:52;1.65;;;0.80;;
60233;SDS011;49514;43.538;-5.708;2022-11-20T01:14:19;2.28;;;1.00;;
60233;SDS011;49514;43.538;-5.708;2022-11-20T01:16:47;1.80;;;0.80;;
60233;SDS011;49514;43.538;-5.708;2022-11-20T01:19:17;1.00;;;0.70;;
60233;SDS011;49514;43.538;-5.708;2022-11-20T01:21:51;1.30;;;0.90;;
60233;SDS011;49514;43.538;-5.708;2022-11-20T01:24:19;1.17;;;0.70;;
60233;SDS011;49514;43.538;-5.708;2022-11-20T01:26:48;2.92;;;1.10;;
60233;SDS011;49514;43.538;-5.708;2022-11-20T01:29:17;17.23;;;3.93;;
60233;SDS011;49514;43.538;-5.708;2022-11-20T01:31:48;6.57;;;2.00;;
60233;SDS011;49514;43.538;-5.708;2022-11-20T01:34:16;3.97;;;1.02;;
60233;SDS011;49514;43.538;-5.708;2022-11-20T01:36:44;0.88;;;0.57;;
60233;SDS011;49514;43.538;-5.708;2022-11-20T01:39:18;3.88;;;1.10;;
60233;SDS011;49514;43.538;-5.708;2022-11-20T01:41:47;2.45;;;1.05;;
60233;SDS011;49514;43.538;-5.708;2022-11-20T01:44:43;2.70;;;0.90;;
60233;SDS011;49514;43.538;-5.708;2022-11-20T01:47:23;1.35;;;0.65;;
60233;SDS011;49514;43.538;-5.708;2022-11-20T01:55:22;1.20;;;0.50;;
60233;SDS011;49514;43.538;-5.708;2022-11-20T01:57:53;2.92;;;1.10;;
60233;SDS011;49514;43.538;-5.708;2022-11-20T02:00:20;13.45;;;3.33;;
60233;SDS011;49514;43.538;-5.708;2022-11-20T02:02:52;20.73;;;5.43;;
60233;SDS011;49514;43.538;-5.708;2022-11-20T02:05:32;19.70;;;5.03;;
60233;SDS011;49514;43.538;-5.708;2022-11-20T02:08:03;29.88;;;4.43;;
60233;SDS011;49514;43.538;-5.708;2022-11-20T02:10:33;24.92;;;3.67;;
60233;SDS011;49514;43.538;-5.708;2022-11-20T02:13:01;35.70;;;3.90;;
60233;SDS011;49514;43.538;-5.708;2022-11-20T02:15:47;32.80;;;6.22;;
60233;SDS011;49514;43.538;-5.708;2022-11-20T02:18:16;33.67;;;4.80;;
60233;SDS011;49514;43.538;-5.708;2022-11-20T02:20:45;29.95;;;4.82;;
60233;SDS011;49514;43.538;-5.708;2022-11-20T02:23:28;37.97;;;3.40;;
60233;SDS011;49514;43.538;-5.708;2022-11-20T02:26:05;28.55;;;4.82;;
60233;SDS011;49514;43.538;-5.708;2022-11-20T02:28:36;36.60;;;6.80;;
60233;SDS011;49514;43.538;-5.708;2022-11-20T02:31:03;24.20;;;4.40;;
60233;SDS011;49514;43.538;-5.708;2022-11-20T02:35:56;18.65;;;3.42;;
60233;SDS011;49514;43.538;-5.708;2022-11-20T02:38:22;21.95;;;4.30;;
60233;SDS011;49514;43.538;-5.708;2022-11-20T02:40:49;18.67;;;2.45;;
60233;SDS011;49514;43.538;-5.708;2022-11-20T02:43:16;19.42;;;2.90;;
60233;SDS011;49514;43.538;-5.708;2022-11-20T02:45:43;20.77;;;3.30;;
60233;SDS011;49514;43.538;-5.708;2022-11-20T02:48:09;18.48;;;3.60;;
60233;SDS011;49514;43.538;-5.708;2022-11-20T02:50:37;12.35;;;3.53;;
60233;SDS011;49514;43.538;-5.708;2022-11-20T02:53:04;17.17;;;4.65;;
60233;SDS011;49514;43.538;-5.708;2022-11-20T02:55:31;14.48;;;4.28;;
60233;SDS011;49514;43.538;-5.708;2022-11-20T02:57:58;14.02;;;4.13;;
60233;SDS011;49514;43.538;-5.708;2022-11-20T03:00:25;7.10;;;2.70;;
60233;SDS011;49514;43.538;-5.708;2022-11-20T03:02:51;12.48;;;3.53;;
60233;SDS011;49514;43.538;-5.708;2022-11-20T03:05:18;4.28;;;1.95;;
60233;SDS011;49514;43.538;-5.708;2022-11-20T03:07:45;6.20;;;2.53;;
60233;SDS011;49514;43.538;-5.708;2022-11-20T03:10:12;6.45;;;2.33;;
60233;SDS011;49514;43.538;-5.708;2022-11-20T03:12:38;4.63;;;1.58;;
60233;SDS011;49514;43.538;-5.708;2022-11-20T03:15:05;1.70;;;0.80;;
60233;SDS011;49514;43.538;-5.708;2022-11-20T03:17:32;2.35;;;1.10;;
60233;SDS011;49514;43.538;-5.708;2022-11-20T03:19:58;2.03;;;0.88;;
60233;SDS011;49514;43.538;-5.708;2022-11-20T03:22:25;5.65;;;1.90;;
60233;SDS011;49514;43.538;-5.708;2022-11-20T03:24:54;12.88;;;3.40;;
60233;SDS011;49514;43.538;-5.708;2022-11-20T03:27:20;19.55;;;3.80;;
60233;SDS011;49514;43.538;-5.708;2022-11-20T03:29:47;20.98;;;4.50;;
60233;SDS011;49514;43.538;-5.708;2022-11-20T03:32:14;20.70;;;4.10;;
60233;SDS011;49514;43.538;-5.708;2022-11-20T03:34:40;26.63;;;4.68;;
60233;SDS011;49514;43.538;-5.708;2022-11-20T03:37:07;7.55;;;2.03;;
60233;SDS011;49514;43.538;-5.708;2022-11-20T03:39:33;20.27;;;3.40;;
60233;SDS011;49514;43.538;-5.708;2022-11-20T03:42:00;21.88;;;4.35;;
60233;SDS011;49514;43.538;-5.708;2022-11-20T03:44:27;18.00;;;2.78;;
60233;SDS011;49514;43.538;-5.708;2022-11-20T03:46:53;18.77;;;2.27;;
60233;SDS011;49514;43.538;-5.708;2022-11-20T03:49:20;17.63;;;5.63;;
60233;SDS011;49514;43.538;-5.708;2022-11-20T03:51:47;19.15;;;2.92;;
60233;SDS011;49514;43.538;-5.708;2022-11-20T03:54:13;10.68;;;2.40;;
60233;SDS011;49514;43.538;-5.708;2022-11-20T03:56:40;8.60;;;1.50;;
60233;SDS011;49514;43.538;-5.708;2022-11-20T03:59:09;4.30;;;0.53;;
60233;SDS011;49514;43.538;-5.708;2022-11-20T04:01:36;0.10;;;0.10;;
60233;SDS011;49514;43.538;-5.708;2022-11-20T04:04:03;2.03;;;0.60;;
60233;SDS011;49514;43.538;-5.708;2022-11-20T04:06:33;7.40;;;1.70;;
60233;SDS011;49514;43.538;-5.708;2022-11-20T04:09:03;8.15;;;0.80;;
60233;SDS011;49514;43.538;-5.708;2022-11-20T04:11:32;3.58;;;0.40;;
60233;SDS011;49514;43.538;-5.708;2022-11-20T04:14:04;1.30;;;0.20;;
60233;SDS011;49514;43.538;-5.708;2022-11-20T04:16:32;4.30;;;0.95;;
60233;SDS011;49514;43.538;-5.708;2022-11-20T04:19:01;12.35;;;1.10;;
60233;SDS011;49514;43.538;-5.708;2022-11-20T04:21:29;4.60;;;0.70;;
60233;SDS011;49514;43.538;-5.708;2022-11-20T04:23:56;1.30;;;0.20;;
60233;SDS011;49514;43.538;-5.708;2022-11-20T04:26:24;4.20;;;0.77;;
60233;SDS011;49514;43.538;-5.708;2022-11-20T04:28:51;3.17;;;0.40;;
60233;SDS011;49514;43.538;-5.708;2022-11-20T04:31:19;7.13;;;1.70;;
60233;SDS011;49514;43.538;-5.708;2022-11-20T04:33:48;14.73;;;1.40;;
60233;SDS011;49514;43.538;-5.708;2022-11-20T04:36:15;16.02;;;1.83;;
60233;SDS011;49514;43.538;-5.708;2022-11-20T04:38:43;14.90;;;1.00;;
60233;SDS011;49514;43.538;-5.708;2022-11-20T04:41:20;10.07;;;1.00;;
60233;SDS011;49514;43.538;-5.708;2022-11-20T04:43:48;7.90;;;0.98;;
60233;SDS011;49514;43.538;-5.708;2022-11-20T04:46:17;15.70;;;1.27;;
60233;SDS011;49514;43.538;-5.708;2022-11-20T04:48:45;12.27;;;1.20;;
60233;SDS011;49514;43.538;-5.708;2022-11-20T04:51:13;90.30;;;23.58;;
60233;SDS011;49514;43.538;-5.708;2022-11-20T04:53:40;53.58;;;14.32;;
60233;SDS011;49514;43.538;-5.708;2022-11-20T04:56:07;52.00;;;15.75;;
60233;SDS011;49514;43.538;-5.708;2022-11-20T04:58:36;35.53;;;13.67;;
60233;SDS011;49514;43.538;-5.708;2022-11-20T05:01:07;32.20;;;12.98;;
60233;SDS011;49514;43.538;-5.708;2022-11-20T05:03:35;14.82;;;7.88;;
60233;SDS011;49514;43.538;-5.708;2022-11-20T05:06:03;15.98;;;8.00;;
60233;SDS011;49514;43.538;-5.708;2022-11-20T05:08:31;11.18;;;6.22;;
60233;SDS011;49514;43.538;-5.708;2022-11-20T05:11:05;6.90;;;4.68;;
60233;SDS011;49514;43.538;-5.708;2022-11-20T05:13:33;4.85;;;2.10;;
60233;SDS011;49514;43.538;-5.708;2022-11-20T05:16:00;4.80;;;1.40;;
60233;SDS011;49514;43.538;-5.708;2022-11-20T05:18:31;2.45;;;1.00;;
60233;SDS011;49514;43.538;-5.708;2022-11-20T05:20:59;2.50;;;0.90;;
60233;SDS011;49514;43.538;-5.708;2022-11-20T05:23:26;1.83;;;0.70;;
60233;SDS011;49514;43.538;-5.708;2022-11-20T05:25:55;1.02;;;0.60;;
60233;SDS011;49514;43.538;-5.708;2022-11-20T05:28:22;1.98;;;0.77;;
60233;SDS011;49514;43.538;-5.708;2022-11-20T05:30:50;2.23;;;0.67;;
60233;SDS011;49514;43.538;-5.708;2022-11-20T05:33:16;1.30;;;0.30;;
60233;SDS011;49514;43.538;-5.708;2022-11-20T05:35:44;2.85;;;0.20;;
60233;SDS011;49514;43.538;-5.708;2022-11-20T05:38:10;4.47;;;0.60;;
60233;SDS011;49514;43.538;-5.708;2022-11-20T05:40:37;1.13;;;0.30;;
60233;SDS011;49514;43.538;-5.708;2022-11-20T05:43:03;1.05;;;0.35;;
60233;SDS011;49514;43.538;-5.708;2022-11-20T05:45:30;1.60;;;0.70;;
60233;SDS011;49514;43.538;-5.708;2022-11-20T05:47:59;2.20;;;0.63;;
60233;SDS011;49514;43.538;-5.708;2022-11-20T05:50:27;3.60;;;0.70;;
60233;SDS011;49514;43.538;-5.708;2022-11-20T05:52:54;4.43;;;0.80;;
60233;SDS011;49514;43.538;-5.708;2022-11-20T05:55:21;3.95;;;0.80;;
60233;SDS011;49514;43.538;-5.708;2022-11-20T05:57:47;2.60;;;0.60;;
60233;SDS011;49514;43.538;-5.708;2022-11-20T06:00:14;2.30;;;0.70;;
60233;SDS011;49514;43.538;-5.708;2022-11-20T06:02:41;1.63;;;0.50;;
60233;SDS011;49514;43.538;-5.708;2022-11-20T06:14:53;4.18;;;0.43;;
60233;SDS011;49514;43.538;-5.708;2022-11-20T06:17:20;4.47;;;0.85;;
60233;SDS011;49514;43.538;-5.708;2022-11-20T06:19:47;6.57;;;1.10;;
60233;SDS011;49514;43.538;-5.708;2022-11-20T06:22:14;5.35;;;1.05;;
60233;SDS011;49514;43.538;-5.708;2022-11-20T06:24:40;1.80;;;0.50;;
60233;SDS011;49514;43.538;-5.708;2022-11-20T06:27:07;5.53;;;1.05;;
60233;SDS011;49514;43.538;-5.708;2022-11-20T06:29:34;7.43;;;0.98;;
60233;SDS011;49514;43.538;-5.708;2022-11-20T06:32:00;4.53;;;1.15;;
60233;SDS011;49514;43.538;-5.708;2022-11-20T06:34:27;2.95;;;0.70;;
60233;SDS011;49514;43.538;-5.708;2022-11-20T06:36:54;5.03;;;1.05;;
60233;SDS011;49514;43.538;-5.708;2022-11-20T06:39:20;3.95;;;1.20;;
60233;SDS011;49514;43.538;-5.708;2022-11-20T06:41:47;5.40;;;1.05;;
60233;SDS011;49514;43.538;-5.708;2022-11-20T06:44:13;6.55;;;1.20;;
60233;SDS011;49514;43.538;-5.708;2022-11-20T06:46:40;5.95;;;1.40;;
60233;SDS011;49514;43.538;-5.708;2022-11-20T06:49:06;8.75;;;1.50;;
60233;SDS011;49514;43.538;-5.708;2022-11-20T06:51:33;6.97;;;1.30;;
60233;SDS011;49514;43.538;-5.708;2022-11-20T06:54:00;6.25;;;1.42;;
60233;SDS011;49514;43.538;-5.708;2022-11-20T06:56:27;4.75;;;1.20;;
60233;SDS011;49514;43.538;-5.708;2022-11-20T06:58:54;6.82;;;1.20;;
60233;SDS011;49514;43.538;-5.708;2022-11-20T07:01:20;8.35;;;1.50;;
60233;SDS011;49514;43.538;-5.708;2022-11-20T07:03:48;8.10;;;1.90;;
60233;SDS011;49514;43.538;-5.708;2022-11-20T07:06:16;2.83;;;1.30;;
60233;SDS011;49514;43.538;-5.708;2022-11-20T07:08:43;10.88;;;1.80;;
60233;SDS011;49514;43.538;-5.708;2022-11-20T07:11:11;11.82;;;2.33;;
60233;SDS011;49514;43.538;-5.708;2022-11-20T07:13:38;7.77;;;2.27;;
60233;SDS011;49514;43.538;-5.708;2022-11-20T07:16:05;10.48;;;2.28;;
60233;SDS011;49514;43.538;-5.708;2022-11-20T07:18:34;13.13;;;2.45;;
60233;SDS011;49514;43.538;-5.708;2022-11-20T08:20:09;19.45;;;2.75;;
60233;SDS011;49514;43.538;-5.708;2022-11-20T08:22:36;24.70;;;3.83;;
60233;SDS011;49514;43.538;-5.708;2022-11-20T08:25:03;17.35;;;2.63;;
60233;SDS011;49514;43.538;-5.708;2022-11-20T08:27:31;26.10;;;4.10;;
60233;SDS011;49514;43.538;-5.708;2022-11-20T08:29:58;27.27;;;4.30;;
60233;SDS011;49514;43.538;-5.708;2022-11-20T13:08:37;17.85;;;3.50;;
60233;SDS011;49514;43.538;-5.708;2022-11-20T13:19:01;11.07;;;2.25;;
60233;SDS011;49514;43.538;-5.708;2022-11-20T13:21:39;12.23;;;2.40;;
60233;SDS011;49514;43.538;-5.708;2022-11-20T13:29:43;12.57;;;3.20;;
60233;SDS011;49514;43.538;-5.708;2022-11-20T13:45:11;13.77;;;2.83;;
60233;SDS011;49514;43.538;-5.708;2022-11-20T14:18:26;18.08;;;2.67;;
60233;SDS011;49514;43.538;-5.708;2022-11-20T14:20:53;13.60;;;2.97;;
60233;SDS011;49514;43.538;-5.708;2022-11-20T14:23:24;12.55;;;2.47;;
60233;SDS011;49514;43.538;-5.708;2022-11-20T14:28:29;8.77;;;2.20;;
60233;SDS011;49514;43.538;-5.708;2022-11-20T14:43:45;11.20;;;2.15;;
60233;SDS011;49514;43.538;-5.708;2022-11-20T14:46:13;9.77;;;2.20;;
60233;SDS011;49514;43.538;-5.708;2022-11-20T14:48:45;13.70;;;2.90;;
60233;SDS011;49514;43.538;-5.708;2022-11-20T14:51:34;7.50;;;1.98;;
60233;SDS011;49514;43.538;-5.708;2022-11-20T14:54:11;9.43;;;2.40;;
60233;SDS011;49514;43.538;-5.708;2022-11-20T14:56:40;10.48;;;2.22;;
60233;SDS011;49514;43.538;-5.708;2022-11-20T14:59:08;8.30;;;2.50;;
60233;SDS011;49514;43.538;-5.708;2022-11-20T15:01:35;11.75;;;2.78;;
60233;SDS011;49514;43.538;-5.708;2022-11-20T15:04:07;11.95;;;3.00;;
60233;SDS011;49514;43.538;-5.708;2022-11-20T15:06:36;9.60;;;2.80;;
60233;SDS011;49514;43.538;-5.708;2022-11-20T15:09:03;11.05;;;2.70;;
60233;SDS011;49514;43.538;-5.708;2022-11-20T15:11:32;13.77;;;3.53;;
60233;SDS011;49514;43.538;-5.708;2022-11-20T15:14:04;8.95;;;2.70;;
60233;SDS011;49514;43.538;-5.708;2022-11-20T15:16:32;11.40;;;2.75;;
60233;SDS011;49514;43.538;-5.708;2022-11-20T15:18:59;11.80;;;2.80;;
60233;SDS011;49514;43.538;-5.708;2022-11-20T15:21:28;13.07;;;2.90;;
60233;SDS011;49514;43.538;-5.708;2022-11-20T15:23:55;12.68;;;2.53;;
60233;SDS011;49514;43.538;-5.708;2022-11-20T15:26:26;11.07;;;2.80;;
60233;SDS011;49514;43.538;-5.708;2022-11-20T15:28:53;10.97;;;2.40;;
60233;SDS011;49514;43.538;-5.708;2022-11-20T15:31:21;9.35;;;2.55;;
60233;SDS011;49514;43.538;-5.708;2022-11-20T15:33:49;12.05;;;2.63;;
60233;SDS011;49514;43.538;-5.708;2022-11-20T15:36:17;12.97;;;2.73;;
60233;SDS011;49514;43.538;-5.708;2022-11-20T15:38:44;14.27;;;3.03;;
60233;SDS011;49514;43.538;-5.708;2022-11-20T15:41:11;11.43;;;3.00;;
60233;SDS011;49514;43.538;-5.708;2022-11-20T15:43:37;17.50;;;4.03;;
60233;SDS011;49514;43.538;-5.708;2022-11-20T15:46:12;16.60;;;3.63;;
60233;SDS011;49514;43.538;-5.708;2022-11-20T15:48:42;14.77;;;3.60;;
60233;SDS011;49514;43.538;-5.708;2022-11-20T15:51:18;13.07;;;2.75;;
60233;SDS011;49514;43.538;-5.708;2022-11-20T15:53:51;16.23;;;2.90;;
60233;SDS011;49514;43.538;-5.708;2022-11-20T15:56:18;11.70;;;2.72;;
60233;SDS011;49514;43.538;-5.708;2022-11-20T15:58:46;12.63;;;2.73;;
60233;SDS011;49514;43.538;-5.708;2022-11-20T16:08:37;12.10;;;2.33;;
60233;SDS011;49514;43.538;-5.708;2022-11-20T16:11:04;10.25;;;2.30;;
60233;SDS011;49514;43.538;-5.708;2022-11-20T16:13:31;14.57;;;2.70;;
60233;SDS011;49514;43.538;-5.708;2022-11-20T17:08:38;15.02;;;3.38;;
60233;SDS011;49514;43.538;-5.708;2022-11-20T17:11:07;12.05;;;2.80;;
60233;SDS011;49514;43.538;-5.708;2022-11-20T17:13:35;12.35;;;2.40;;
60233;SDS011;49514;43.538;-5.708;2022-11-20T17:16:11;12.88;;;2.72;;
60233;SDS011;49514;43.538;-5.708;2022-11-20T17:18:39;9.57;;;2.47;;
60233;SDS011;49514;43.538;-5.708;2022-11-20T17:21:07;10.07;;;2.25;;
60233;SDS011;49514;43.538;-5.708;2022-11-20T17:23:34;10.35;;;2.50;;
60233;SDS011;49514;43.538;-5.708;2022-11-20T17:26:03;12.90;;;3.10;;
60233;SDS011;49514;43.538;-5.708;2022-11-20T17:28:34;16.80;;;3.55;;
60233;SDS011;49514;43.538;-5.708;2022-11-20T17:31:02;14.48;;;3.58;;
60233;SDS011;49514;43.538;-5.708;2022-11-20T17:33:34;17.75;;;4.50;;
60233;SDS011;49514;43.538;-5.708;2022-11-20T17:36:03;15.23;;;4.28;;
60233;SDS011;49514;43.538;-5.708;2022-11-20T17:38:32;20.05;;;4.20;;
60233;SDS011;49514;43.538;-5.708;2022-11-20T17:41:06;16.05;;;4.05;;
60233;SDS011;49514;43.538;-5.708;2022-11-20T17:43:39;18.00;;;3.90;;
60233;SDS011;49514;43.538;-5.708;2022-11-20T17:46:09;14.88;;;3.80;;
60233;SDS011;49514;43.538;-5.708;2022-11-20T17:48:45;13.27;;;3.85;;
60233;SDS011;49514;43.538;-5.708;2022-11-20T17:51:14;12.60;;;3.70;;
60233;SDS011;49514;43.538;-5.708;2022-11-20T17:53:43;21.27;;;5.50;;
60233;SDS011;49514;43.538;-5.708;2022-11-20T17:56:13;15.45;;;5.30;;
60233;SDS011;49514;43.538;-5.708;2022-11-20T17:59:00;23.90;;;6.30;;
60233;SDS011;49514;43.538;-5.708;2022-11-20T18:01:33;25.23;;;6.60;;
60233;SDS011;49514;43.538;-5.708;2022-11-20T18:04:01;21.20;;;7.03;;
60233;SDS011;49514;43.538;-5.708;2022-11-20T18:06:28;17.35;;;5.28;;
60233;SDS011;49514;43.538;-5.708;2022-11-20T18:08:57;26.50;;;7.20;;
60233;SDS011;49514;43.538;-5.708;2022-11-20T18:11:26;20.33;;;6.95;;
60233;SDS011;49514;43.538;-5.708;2022-11-20T18:13:56;22.00;;;6.95;;
60233;SDS011;49514;43.538;-5.708;2022-11-20T18:16:48;25.27;;;7.38;;
60233;SDS011;49514;43.538;-5.708;2022-11-20T18:19:21;19.48;;;6.53;;
60233;SDS011;49514;43.538;-5.708;2022-11-20T18:21:53;50.47;;;8.35;;
60233;SDS011;49514;43.538;-5.708;2022-11-20T18:24:20;22.23;;;5.72;;
60233;SDS011;49514;43.538;-5.708;2022-11-20T18:26:47;23.98;;;4.72;;
60233;SDS011;49514;43.538;-5.708;2022-11-20T18:29:14;21.55;;;4.30;;
60233;SDS011;49514;43.538;-5.708;2022-11-20T18:31:42;23.38;;;4.90;;
60233;SDS011;49514;43.538;-5.708;2022-11-20T18:34:11;30.35;;;5.40;;
60233;SDS011;49514;43.538;-5.708;2022-11-20T18:36:39;17.33;;;3.83;;
60233;SDS011;49514;43.538;-5.708;2022-11-20T18:39:08;12.48;;;3.88;;
60233;SDS011;49514;43.538;-5.708;2022-11-20T18:41:37;13.80;;;3.67;;
60233;SDS011;49514;43.538;-5.708;2022-11-20T18:44:24;17.67;;;4.55;;
60233;SDS011;49514;43.538;-5.708;2022-11-20T18:47:12;13.57;;;5.35;;
60233;SDS011;49514;43.538;-5.708;2022-11-20T18:49:47;17.27;;;6.20;;
60233;SDS011;49514;43.538;-5.708;2022-11-20T18:52:18;18.80;;;6.05;;
60233;SDS011;49514;43.538;-5.708;2022-11-20T18:54:47;22.08;;;5.90;;
60233;SDS011;49514;43.538;-5.708;2022-11-20T18:57:17;13.35;;;5.28;;
60233;SDS011;49514;43.538;-5.708;2022-11-20T18:59:45;19.17;;;5.45;;
60233;SDS011;49514;43.538;-5.708;2022-11-20T19:02:13;18.75;;;4.80;;
60233;SDS011;49514;43.538;-5.708;2022-11-20T19:04:41;15.02;;;4.97;;
60233;SDS011;49514;43.538;-5.708;2022-11-20T19:07:09;20.60;;;5.40;;
60233;SDS011;49514;43.538;-5.708;2022-11-20T19:09:39;16.67;;;5.13;;
60233;SDS011;49514;43.538;-5.708;2022-11-20T19:12:08;20.25;;;5.07;;
60233;SDS011;49514;43.538;-5.708;2022-11-20T19:14:37;24.27;;;5.90;;
60233;SDS011;49514;43.538;-5.708;2022-11-20T19:17:05;20.27;;;6.25;;
60233;SDS011;49514;43.538;-5.708;2022-11-20T19:19:33;22.63;;;6.18;;
60233;SDS011;49514;43.538;-5.708;2022-11-20T19:22:00;19.27;;;6.05;;
60233;SDS011;49514;43.538;-5.708;2022-11-20T19:24:27;28.30;;;5.85;;
60233;SDS011;49514;43.538;-5.708;2022-11-20T19:26:55;27.70;;;6.10;;
60233;SDS011;49514;43.538;-5.708;2022-11-20T19:29:22;23.48;;;6.05;;
60233;SDS011;49514;43.538;-5.708;2022-11-20T19:31:50;24.15;;;6.43;;
60233;SDS011;49514;43.538;-5.708;2022-11-20T19:34:16;23.85;;;5.97;;
60233;SDS011;49514;43.538;-5.708;2022-11-20T19:36:43;21.45;;;5.80;;
60233;SDS011;49514;43.538;-5.708;2022-11-20T19:39:12;21.17;;;5.88;;
60233;SDS011;49514;43.538;-5.708;2022-11-20T19:41:39;22.38;;;4.95;;
60233;SDS011;49514;43.538;-5.708;2022-11-20T19:44:09;19.40;;;5.25;;
60233;SDS011;49514;43.538;-5.708;2022-11-20T19:46:39;19.15;;;4.65;;
60233;SDS011;49514;43.538;-5.708;2022-11-20T19:49:07;14.27;;;4.40;;
60233;SDS011;49514;43.538;-5.708;2022-11-20T19:51:37;14.07;;;4.90;;
60233;SDS011;49514;43.538;-5.708;2022-11-20T19:54:08;21.00;;;4.88;;
60233;SDS011;49514;43.538;-5.708;2022-11-20T19:56:35;30.67;;;5.68;;
60233;SDS011;49514;43.538;-5.708;2022-11-20T19:59:03;25.30;;;7.20;;
60233;SDS011;49514;43.538;-5.708;2022-11-20T20:01:32;19.63;;;5.68;;
60233;SDS011;49514;43.538;-5.708;2022-11-20T20:04:00;21.65;;;6.00;;
60233;SDS011;49514;43.538;-5.708;2022-11-20T20:06:28;18.73;;;5.50;;
60233;SDS011;49514;43.538;-5.708;2022-11-20T20:08:58;28.13;;;6.28;;
60233;SDS011;49514;43.538;-5.708;2022-11-20T20:11:30;25.48;;;5.90;;
60233;SDS011;49514;43.538;-5.708;2022-11-20T20:14:00;21.73;;;5.60;;
60233;SDS011;49514;43.538;-5.708;2022-11-20T20:16:27;19.20;;;5.53;;
60233;SDS011;49514;43.538;-5.708;2022-11-20T20:18:55;19.15;;;5.57;;
60233;SDS011;49514;43.538;-5.708;2022-11-20T20:21:23;18.77;;;5.47;;
60233;SDS011;49514;43.538;-5.708;2022-11-20T20:23:53;18.02;;;5.60;;
60233;SDS011;49514;43.538;-5.708;2022-11-20T20:26:23;14.18;;;5.15;;
60233;SDS011;49514;43.538;-5.708;2022-11-20T20:28:51;19.38;;;5.07;;
60233;SDS011;49514;43.538;-5.708;2022-11-20T20:31:20;19.73;;;5.28;;
60233;SDS011;49514;43.538;-5.708;2022-11-20T20:33:49;23.35;;;5.75;;
60233;SDS011;49514;43.538;-5.708;2022-11-20T20:36:17;24.60;;;6.50;;
60233;SDS011;49514;43.538;-5.708;2022-11-20T20:38:45;21.02;;;5.57;;
60233;SDS011;49514;43.538;-5.708;2022-11-20T20:41:13;23.85;;;6.68;;
60233;SDS011;49514;43.538;-5.708;2022-11-20T20:43:43;21.35;;;5.40;;
60233;SDS011;49514;43.538;-5.708;2022-11-20T20:46:29;19.25;;;5.20;;
60233;SDS011;49514;43.538;-5.708;2022-11-20T20:48:56;23.30;;;5.82;;
60233;SDS011;49514;43.538;-5.708;2022-11-20T20:51:23;39.80;;;10.98;;
60233;SDS011;49514;43.538;-5.708;2022-11-20T20:53:50;20.13;;;6.07;;
60233;SDS011;49514;43.538;-5.708;2022-11-20T20:56:17;22.90;;;6.22;;
60233;SDS011;49514;43.538;-5.708;2022-11-20T20:58:44;18.70;;;5.32;;
60233;SDS011;49514;43.538;-5.708;2022-11-20T21:01:15;22.92;;;5.97;;
60233;SDS011;49514;43.538;-5.708;2022-11-20T21:03:43;21.65;;;6.63;;
60233;SDS011;49514;43.538;-5.708;2022-11-20T21:06:10;23.77;;;5.60;;
60233;SDS011;49514;43.538;-5.708;2022-11-20T21:08:37;14.52;;;5.65;;
60233;SDS011;49514;43.538;-5.708;2022-11-20T21:11:06;17.70;;;5.53;;
60233;SDS011;49514;43.538;-5.708;2022-11-20T21:13:34;22.17;;;6.40;;
60233;SDS011;49514;43.538;-5.708;2022-11-20T21:16:02;24.70;;;7.75;;
60233;SDS011;49514;43.538;-5.708;2022-11-20T21:18:30;22.80;;;7.57;;
60233;SDS011;49514;43.538;-5.708;2022-11-20T21:20:58;21.10;;;6.05;;
60233;SDS011;49514;43.538;-5.708;2022-11-20T21:23:45;19.02;;;7.10;;
60233;SDS011;49514;43.538;-5.708;2022-11-20T21:26:13;19.77;;;7.18;;
60233;SDS011;49514;43.538;-5.708;2022-11-20T21:28:41;22.10;;;7.18;;
60233;SDS011;49514;43.538;-5.708;2022-11-20T21:31:11;21.48;;;6.80;;
60233;SDS011;49514;43.538;-5.708;2022-11-20T21:33:50;15.63;;;6.07;;
60233;SDS011;49514;43.538;-5.708;2022-11-20T21:36:19;22.00;;;7.60;;
60233;SDS011;49514;43.538;-5.708;2022-11-20T21:38:49;24.00;;;8.32;;
60233;SDS011;49514;43.538;-5.708;2022-11-20T21:41:18;21.00;;;7.47;;
60233;SDS011;49514;43.538;-5.708;2022-11-20T21:43:45;26.90;;;7.28;;
60233;SDS011;49514;43.538;-5.708;2022-11-20T21:46:15;27.38;;;7.30;;
60233;SDS011;49514;43.538;-5.708;2022-11-20T21:48:43;25.00;;;7.80;;
60233;SDS011;49514;43.538;-5.708;2022-11-20T21:51:12;24.35;;;7.28;;
60233;SDS011;49514;43.538;-5.708;2022-11-20T21:53:43;23.58;;;6.82;;
60233;SDS011;49514;43.538;-5.708;2022-11-20T21:56:11;19.58;;;6.65;;
60233;SDS011;49514;43.538;-5.708;2022-11-20T21:58:40;26.73;;;6.55;;
60233;SDS011;49514;43.538;-5.708;2022-11-20T22:01:08;22.88;;;6.82;;
60233;SDS011;49514;43.538;-5.708;2022-11-20T22:03:37;26.10;;;7.07;;
60233;SDS011;49514;43.538;-5.708;2022-11-20T22:06:05;28.45;;;7.80;;
60233;SDS011;49514;43.538;-5.708;2022-11-20T22:08:33;38.90;;;8.90;;
60233;SDS011;49514;43.538;-5.708;2022-11-20T22:11:02;34.83;;;8.23;;
60233;SDS011;49514;43.538;-5.708;2022-11-20T22:13:31;31.88;;;8.35;;
60233;SDS011;49514;43.538;-5.708;2022-11-20T22:16:17;30.95;;;7.90;;
60233;SDS011;49514;43.538;-5.708;2022-11-20T22:18:49;28.27;;;7.80;;
60233;SDS011;49514;43.538;-5.708;2022-11-20T22:21:18;33.07;;;8.97;;
60233;SDS011;49514;43.538;-5.708;2022-11-20T22:23:46;25.58;;;7.38;;
60233;SDS011;49514;43.538;-5.708;2022-11-20T22:28:47;24.77;;;7.18;;
60233;SDS011;49514;43.538;-5.708;2022-11-20T22:31:16;26.95;;;6.90;;
60233;SDS011;49514;43.538;-5.708;2022-11-20T22:33:45;23.05;;;6.55;;
60233;SDS011;49514;43.538;-5.708;2022-11-20T22:36:20;17.50;;;6.53;;
60233;SDS011;49514;43.538;-5.708;2022-11-20T22:38:48;17.13;;;6.47;;
60233;SDS011;49514;43.538;-5.708;2022-11-20T22:41:24;23.00;;;8.55;;
60233;SDS011;49514;43.538;-5.708;2022-11-20T22:43:53;32.17;;;14.57;;
60233;SDS011;49514;43.538;-5.708;2022-11-20T22:46:22;36.53;;;16.45;;